createdAt,value
2019-02-27T00:02:22.697Z,6.50
2019-02-27T00:04:51.240Z,6.77
2019-02-27T00:07:23.000Z,7.27
2019-02-27T00:09:53.461Z,7.50
2019-02-27T00:12:23.965Z,6.87
2019-02-27T00:14:55.870Z,7.30
2019-02-27T00:17:25.046Z,7.37
2019-02-27T00:19:55.531Z,7.87
2019-02-27T00:22:27.473Z,7.90
2019-02-27T00:25:02.985Z,6.90
2019-02-27T00:27:32.002Z,6.97
2019-02-27T00:30:05.603Z,7.40
2019-02-27T00:32:36.067Z,6.93
2019-02-27T00:35:07.321Z,6.60
2019-02-27T00:37:38.912Z,6.40
2019-02-27T00:40:11.219Z,7.43
2019-02-27T00:42:42.699Z,6.93
2019-02-27T00:45:13.138Z,6.33
2019-02-27T00:47:43.429Z,5.97
2019-02-27T00:50:13.937Z,6.47
2019-02-27T00:52:50.890Z,6.23
2019-02-27T00:55:19.857Z,6.17
2019-02-27T00:57:51.821Z,6.53
2019-02-27T01:00:21.336Z,6.53
2019-02-27T01:02:53.449Z,6.93
2019-02-27T01:05:23.567Z,6.43
2019-02-27T01:07:56.132Z,7.07
2019-02-27T01:10:25.883Z,6.97
2019-02-27T01:12:58.212Z,6.90
2019-02-27T01:15:28.016Z,7.07
2019-02-27T01:18:00.520Z,7.30
2019-02-27T01:20:33.853Z,6.83
2019-02-27T01:23:03.873Z,7.20
2019-02-27T01:25:36.661Z,7.77
2019-02-27T01:28:11.151Z,7.63
2019-02-27T01:30:41.721Z,7.00
2019-02-27T01:33:11.395Z,7.47
2019-02-27T01:35:42.825Z,7.40
2019-02-27T01:38:15.280Z,6.63
2019-02-27T01:40:45.394Z,7.10
2019-02-27T01:43:17.614Z,6.97
2019-02-27T01:45:47.635Z,7.00
2019-02-27T01:48:22.962Z,7.13
2019-02-27T01:50:54.964Z,6.60
2019-02-27T01:53:24.891Z,6.33
2019-02-27T01:55:56.371Z,7.17
2019-02-27T01:58:28.420Z,6.57
2019-02-27T02:00:58.610Z,6.37
2019-02-27T02:03:28.929Z,6.43
2019-02-27T02:05:59.899Z,7.30
2019-02-27T02:08:33.423Z,6.70
2019-02-27T02:11:04.011Z,7.33
2019-02-27T02:13:57.712Z,6.83
2019-02-27T02:16:52.491Z,6.67
2019-02-27T02:20:03.569Z,6.30
2019-02-27T02:22:54.179Z,6.83
2019-02-27T02:26:01.063Z,7.13
2019-02-27T02:29:42.546Z,6.23
2019-02-27T02:32:28.378Z,7.10
2019-02-27T02:35:14.615Z,6.70
2019-02-27T02:38:24.486Z,6.87
2019-02-27T02:41:30.064Z,6.57
2019-02-27T02:44:49.318Z,6.47
2019-02-27T02:47:43.738Z,5.90
2019-02-27T02:51:06.420Z,6.60
2019-02-27T02:54:26.952Z,6.40
2019-02-27T02:57:46.072Z,6.70
2019-02-27T03:01:00.756Z,6.27
2019-02-27T03:04:06.419Z,7.07
2019-02-27T03:07:11.060Z,6.87
2019-02-27T03:10:18.908Z,7.10
2019-02-27T03:13:25.365Z,6.50
2019-02-27T03:16:32.939Z,7.63
2019-02-27T03:19:13.729Z,7.07
2019-02-27T03:22:29.236Z,7.57
2019-02-27T03:25:43.412Z,7.07
2019-02-27T03:28:42.056Z,6.60
2019-02-27T03:31:41.102Z,6.53
2019-02-27T03:35:12.746Z,6.47
2019-02-27T03:38:30.924Z,6.70
2019-02-27T03:41:59.442Z,7.13
2019-02-27T03:45:08.075Z,6.90
2019-02-27T03:48:29.720Z,7.00
2019-02-27T03:51:40.920Z,7.00
2019-02-27T03:54:27.960Z,6.90
2019-02-27T03:57:22.177Z,7.00
2019-02-27T04:00:22.014Z,6.17
2019-02-27T04:03:23.179Z,6.67
2019-02-27T04:06:41.727Z,6.50
2019-02-27T04:09:12.144Z,6.77
2019-02-27T04:11:43.517Z,6.37
2019-02-27T04:14:40.204Z,6.70
2019-02-27T04:17:10.991Z,6.93
2019-02-27T04:19:41.534Z,6.67
2019-02-27T04:22:11.016Z,6.63
2019-02-27T04:24:47.352Z,6.47
2019-02-27T04:27:21.218Z,6.67
2019-02-27T04:29:48.127Z,6.80
2019-02-27T04:32:20.793Z,6.90
2019-02-27T04:34:53.266Z,6.53
2019-02-27T04:37:29.228Z,6.87
2019-02-27T04:40:04.221Z,7.67
2019-02-27T04:42:35.748Z,6.70
2019-02-27T04:45:06.066Z,6.30
2019-02-27T04:47:36.797Z,6.70
2019-02-27T04:50:11.332Z,6.77
2019-02-27T04:52:40.896Z,6.87
2019-02-27T04:55:13.089Z,6.50
2019-02-27T04:57:44.567Z,6.43
2019-02-27T05:00:15.530Z,6.87
2019-02-27T05:02:45.823Z,7.13
2019-02-27T05:05:18.096Z,7.20
2019-02-27T05:07:48.594Z,7.00
2019-02-27T05:10:21.691Z,6.33
2019-02-27T05:12:51.937Z,6.50
2019-02-27T05:15:22.511Z,6.43
2019-02-27T05:17:59.023Z,7.10
2019-02-27T05:20:28.755Z,6.70
2019-02-27T05:23:01.067Z,6.87
2019-02-27T05:25:31.311Z,6.90
2019-02-27T05:28:02.976Z,6.77
2019-02-27T05:30:32.933Z,7.80
2019-02-27T05:33:03.050Z,7.33
2019-02-27T05:35:33.297Z,7.20
2019-02-27T05:38:08.756Z,7.23
2019-02-27T05:40:43.160Z,6.90
2019-02-27T05:43:18.973Z,7.13
2019-02-27T05:45:52.039Z,7.37
2019-02-27T05:48:21.643Z,7.20
2019-02-27T05:50:51.097Z,6.93
2019-02-27T05:53:22.931Z,7.23
2019-02-27T05:55:53.348Z,7.37
2019-02-27T05:58:24.680Z,7.27
2019-02-27T06:00:54.383Z,7.63
2019-02-27T06:03:24.672Z,7.17
2019-02-27T06:05:54.892Z,7.17
2019-02-27T06:08:29.827Z,7.37
2019-02-27T06:11:01.425Z,6.83
2019-02-27T06:13:33.453Z,7.10
2019-02-27T06:16:06.042Z,6.53
2019-02-27T06:18:39.779Z,6.90
2019-02-27T06:21:13.384Z,7.37
2019-02-27T06:23:42.404Z,7.47
2019-02-27T06:26:13.939Z,8.07
2019-02-27T06:28:43.685Z,7.70
2019-02-27T06:31:13.132Z,7.47
2019-02-27T06:33:59.024Z,7.43
2019-02-27T06:36:28.978Z,7.37
2019-02-27T06:39:04.869Z,6.57
2019-02-27T06:41:35.508Z,8.00
2019-02-27T06:44:06.638Z,7.47
2019-02-27T06:46:41.890Z,7.63
2019-02-27T06:49:18.399Z,7.67
2019-02-27T06:51:48.738Z,7.80
2019-02-27T06:54:20.022Z,8.37
2019-02-27T06:56:49.673Z,8.27
2019-02-27T06:59:19.075Z,8.13
2019-02-27T07:01:49.449Z,7.97
2019-02-27T07:04:18.916Z,8.97
2019-02-27T07:06:54.963Z,9.43
2019-02-27T07:09:22.635Z,8.93
2019-02-27T07:11:51.802Z,8.67
2019-02-27T07:14:39.234Z,8.83
2019-02-27T07:17:07.576Z,8.30
2019-02-27T07:19:37.117Z,7.77
2019-02-27T07:22:08.868Z,11.63
2019-02-27T07:24:37.569Z,13.53
2019-02-27T07:27:21.268Z,11.10
2019-02-27T07:29:53.335Z,8.70
2019-02-27T07:32:22.663Z,7.90
2019-02-27T07:34:53.484Z,8.40
2019-02-27T07:37:23.012Z,9.50
2019-02-27T07:39:54.221Z,8.93
2019-02-27T07:42:24.473Z,8.97
2019-02-27T07:44:54.767Z,9.53
2019-02-27T07:47:23.961Z,8.87
2019-02-27T07:49:56.286Z,10.17
2019-02-27T07:52:32.217Z,10.20
2019-02-27T07:54:59.250Z,10.03
2019-02-27T07:57:29.602Z,9.77
2019-02-27T07:59:59.086Z,9.67
2019-02-27T08:02:28.802Z,10.03
2019-02-27T08:04:58.274Z,9.50
2019-02-27T08:07:28.590Z,9.77
2019-02-27T08:10:04.548Z,9.07
2019-02-27T08:12:36.147Z,9.10
2019-02-27T08:15:07.638Z,9.30
2019-02-27T08:17:39.902Z,8.90
2019-02-27T08:20:11.493Z,9.40
2019-02-27T08:22:41.814Z,8.90
2019-02-27T08:25:11.974Z,8.70
2019-02-27T08:27:43.752Z,8.60
2019-02-27T08:30:19.538Z,8.30
2019-02-27T08:32:49.668Z,8.23
2019-02-27T08:35:18.975Z,8.23
2019-02-27T08:37:50.460Z,8.80
2019-02-27T08:40:24.228Z,8.70
2019-02-27T08:42:53.003Z,8.70
2019-02-27T08:45:26.728Z,8.43
2019-02-27T08:47:56.932Z,8.70
2019-02-27T08:50:29.288Z,9.00
2019-02-27T08:52:57.970Z,9.17
2019-02-27T08:55:28.772Z,8.73
2019-02-27T08:58:00.114Z,8.87
2019-02-27T09:00:31.071Z,9.07
2019-02-27T09:03:02.941Z,8.47
2019-02-27T09:05:32.033Z,9.20
2019-02-27T09:08:01.323Z,8.23
2019-02-27T09:10:30.908Z,8.97
2019-02-27T09:13:05.330Z,9.10
2019-02-27T09:15:35.869Z,9.57
2019-02-27T09:18:05.058Z,10.10
2019-02-27T09:20:35.398Z,14.87
2019-02-27T09:23:05.952Z,9.43
2019-02-27T09:25:35.139Z,9.07
2019-02-27T09:28:09.208Z,9.90
2019-02-27T09:30:37.330Z,10.47
2019-02-27T09:33:06.507Z,10.80
2019-02-27T09:35:56.837Z,9.50
2019-02-27T09:38:26.582Z,9.23
2019-02-27T09:40:56.541Z,8.90
2019-02-27T09:43:27.223Z,8.60
2019-02-27T09:45:58.184Z,9.50
2019-02-27T09:48:33.417Z,9.27
2019-02-27T09:51:02.766Z,9.13
2019-02-27T09:53:36.786Z,9.17
2019-02-27T09:56:08.493Z,9.77
2019-02-27T09:58:45.088Z,9.30
2019-02-27T10:01:16.704Z,9.13
2019-02-27T10:03:52.060Z,9.27
2019-02-27T10:06:21.454Z,9.03
2019-02-27T10:08:50.730Z,9.00
2019-02-27T10:11:22.282Z,10.17
2019-02-27T10:13:52.375Z,9.50
2019-02-27T10:16:21.553Z,8.33
2019-02-27T10:18:54.837Z,9.23
2019-02-27T10:21:21.700Z,9.00
2019-02-27T10:23:50.965Z,7.93
2019-02-27T10:26:22.729Z,7.90
2019-02-27T10:28:52.745Z,8.63
2019-02-27T10:31:22.254Z,8.33
2019-02-27T10:33:51.904Z,8.47
2019-02-27T10:36:21.752Z,8.63
2019-02-27T10:38:51.761Z,8.90
2019-02-27T10:41:22.132Z,8.47
2019-02-27T10:43:54.001Z,8.57
2019-02-27T10:46:23.751Z,9.80
2019-02-27T10:49:01.993Z,9.13
2019-02-27T10:51:31.499Z,13.10
2019-02-27T10:54:04.519Z,8.77
2019-02-27T10:56:32.425Z,8.97
2019-02-27T10:59:01.654Z,8.80
2019-02-27T11:01:33.214Z,8.67
2019-02-27T11:04:04.532Z,8.43
2019-02-27T11:06:37.127Z,8.33
2019-02-27T11:09:06.461Z,8.27
2019-02-27T11:11:37.445Z,8.43
2019-02-27T11:14:07.426Z,8.80
2019-02-27T11:16:36.976Z,8.33
2019-02-27T11:19:08.565Z,8.00
2019-02-27T11:21:38.821Z,7.70
2019-02-27T11:24:09.177Z,8.47
2019-02-27T11:26:41.569Z,7.23
2019-02-27T11:29:12.556Z,8.00
2019-02-27T11:31:48.963Z,8.03
2019-02-27T11:34:22.025Z,16.10
2019-02-27T11:36:51.571Z,7.83
2019-02-27T11:39:21.268Z,45.70
2019-02-27T11:41:51.030Z,8.27
2019-02-27T11:44:21.969Z,7.37
2019-02-27T11:46:58.656Z,6.90
2019-02-27T11:49:23.196Z,7.90
2019-02-27T11:51:53.211Z,7.63
2019-02-27T11:54:23.240Z,7.33
2019-02-27T11:56:56.195Z,7.60
2019-02-27T11:59:28.212Z,7.43
2019-02-27T12:01:58.275Z,7.27
2019-02-27T12:04:27.669Z,7.13
2019-02-27T12:06:57.037Z,7.17
2019-02-27T12:09:26.231Z,6.97
2019-02-27T12:11:56.237Z,6.60
2019-02-27T12:14:25.446Z,6.67
2019-02-27T12:16:54.658Z,7.10
2019-02-27T12:19:23.907Z,6.63
2019-02-27T12:21:53.164Z,6.50
2019-02-27T12:24:23.095Z,6.80
2019-02-27T12:26:53.971Z,6.97
2019-02-27T12:29:24.124Z,6.63
2019-02-27T12:31:55.279Z,6.90
2019-02-27T12:34:25.958Z,7.10
2019-02-27T12:36:55.448Z,11.43
2019-02-27T12:39:25.803Z,7.17
2019-02-27T12:42:07.094Z,6.07
2019-02-27T12:44:38.149Z,5.80
2019-02-27T12:47:08.214Z,7.17
2019-02-27T12:49:37.398Z,6.43
2019-02-27T12:52:12.052Z,6.50
2019-02-27T12:54:43.864Z,5.70
2019-02-27T12:57:17.436Z,5.40
2019-02-27T12:59:53.502Z,6.23
2019-02-27T13:02:35.271Z,6.77
2019-02-27T13:05:01.650Z,5.97
2019-02-27T13:07:34.633Z,5.77
2019-02-27T13:10:08.400Z,6.10
2019-02-27T13:12:39.486Z,5.73
2019-02-27T13:15:10.249Z,5.97
2019-02-27T13:17:39.852Z,5.77
2019-02-27T13:20:17.465Z,5.30
2019-02-27T13:22:47.278Z,5.37
2019-02-27T13:25:17.204Z,5.80
2019-02-27T13:27:48.028Z,5.23
2019-02-27T13:30:20.299Z,4.57
2019-02-27T13:32:50.340Z,4.83
2019-02-27T13:35:23.003Z,4.90
2019-02-27T13:37:57.255Z,5.17
2019-02-27T13:40:35.237Z,5.20
2019-02-27T13:43:02.720Z,5.40
2019-02-27T13:45:36.118Z,4.87
2019-02-27T13:48:06.188Z,5.20
2019-02-27T13:50:42.529Z,4.20
2019-02-27T13:53:12.553Z,4.97
2019-02-27T13:55:45.307Z,4.40
2019-02-27T13:58:15.929Z,4.70
2019-02-27T14:00:53.568Z,4.10
2019-02-27T14:03:23.006Z,17.60
2019-02-27T14:05:54.386Z,5.20
2019-02-27T14:08:29.062Z,3.60
2019-02-27T14:11:01.185Z,6.27
2019-02-27T14:13:35.109Z,5.10
2019-02-27T14:16:06.950Z,4.73
2019-02-27T14:18:40.544Z,4.27
2019-02-27T14:21:14.993Z,3.37
2019-02-27T14:23:47.111Z,3.40
2019-02-27T14:26:18.960Z,3.27
2019-02-27T14:28:48.427Z,4.77
2019-02-27T14:31:19.902Z,6.17
2019-02-27T14:33:54.084Z,5.27
2019-02-27T14:36:22.845Z,6.07
2019-02-27T14:38:53.333Z,5.67
2019-02-27T14:41:22.933Z,6.70
2019-02-27T14:43:52.921Z,5.73
2019-02-27T14:46:22.734Z,5.00
2019-02-27T14:48:52.600Z,5.90
2019-02-27T14:51:25.381Z,4.30
2019-02-27T14:53:55.828Z,5.73
2019-02-27T14:56:25.149Z,4.90
2019-02-27T14:58:56.606Z,5.57
2019-02-27T15:01:27.839Z,5.30
2019-02-27T15:04:00.422Z,6.30
2019-02-27T15:06:28.326Z,5.60
2019-02-27T15:08:58.358Z,6.00
2019-02-27T15:11:30.492Z,5.33
2019-02-27T15:14:00.538Z,6.73
2019-02-27T15:16:30.194Z,7.03
2019-02-27T15:19:00.182Z,6.17
2019-02-27T15:21:31.925Z,5.90
2019-02-27T15:24:02.728Z,5.83
2019-02-27T15:26:44.859Z,5.53
2019-02-27T15:29:08.953Z,5.30
2019-02-27T15:31:40.171Z,4.50
2019-02-27T15:34:13.484Z,4.97
2019-02-27T15:36:43.047Z,4.87
2019-02-27T15:39:12.528Z,4.07
2019-02-27T15:41:44.979Z,4.63
2019-02-27T15:44:15.743Z,4.90
2019-02-27T15:46:46.309Z,5.07
2019-02-27T15:49:18.038Z,5.50
2019-02-27T15:52:17.316Z,6.47
2019-02-27T15:54:46.780Z,5.57
2019-02-27T15:57:20.624Z,6.80
2019-02-27T15:59:51.794Z,6.60
2019-02-27T16:02:21.529Z,7.87
2019-02-27T16:04:55.494Z,7.90
2019-02-27T16:07:31.880Z,15.15
2019-02-27T16:10:06.779Z,11.03
2019-02-27T16:12:33.994Z,9.30
2019-02-27T16:15:03.932Z,8.30
2019-02-27T16:17:33.148Z,8.40
2019-02-27T16:20:02.318Z,7.43
2019-02-27T16:22:33.908Z,8.07
2019-02-27T16:25:04.377Z,7.80
2019-02-27T16:27:35.372Z,6.85
2019-02-27T16:30:07.170Z,7.70
2019-02-27T16:32:36.855Z,7.60
2019-02-27T16:35:16.772Z,7.30
2019-02-27T16:37:47.517Z,6.93
2019-02-27T16:40:25.250Z,7.00
2019-02-27T16:42:56.844Z,7.87
2019-02-27T16:45:34.792Z,6.07
2019-02-27T16:48:07.730Z,7.03
2019-02-27T16:50:45.711Z,7.17
2019-02-27T16:53:19.516Z,8.43
2019-02-27T16:55:50.820Z,7.73
2019-02-27T16:58:21.384Z,8.13
2019-02-27T17:00:55.396Z,8.03
2019-02-27T17:03:25.109Z,7.73
2019-02-27T17:05:54.920Z,7.73
2019-02-27T17:08:25.520Z,7.93
2019-02-27T17:10:55.815Z,8.50
2019-02-27T17:13:26.256Z,8.27
2019-02-27T17:15:58.094Z,8.63
2019-02-27T17:18:29.282Z,10.80
2019-02-27T17:21:05.362Z,10.13
2019-02-27T17:23:54.031Z,8.07
2019-02-27T17:26:39.839Z,7.70
2019-02-27T17:29:32.178Z,7.83
2019-02-27T17:32:01.987Z,9.87
2019-02-27T17:34:31.345Z,9.50
2019-02-27T17:37:03.621Z,38.43
2019-02-27T17:39:35.410Z,30.33
2019-02-27T17:42:05.012Z,13.73
2019-02-27T17:44:41.282Z,9.93
2019-02-27T17:47:18.543Z,8.30
2019-02-27T17:49:50.145Z,8.00
2019-02-27T17:52:19.853Z,9.47
2019-02-27T17:54:49.037Z,9.40
2019-02-27T17:57:24.254Z,9.50
2019-02-27T18:00:02.597Z,9.37
2019-02-27T18:02:33.274Z,8.87
2019-02-27T18:05:04.616Z,9.03
2019-02-27T18:07:34.745Z,9.30
2019-02-27T18:10:03.986Z,13.13
2019-02-27T18:12:33.178Z,11.00
2019-02-27T18:15:04.012Z,11.00
2019-02-27T18:17:34.948Z,12.13
2019-02-27T18:20:04.584Z,11.70
2019-02-27T18:22:34.132Z,12.23
2019-02-27T18:25:07.546Z,11.30
2019-02-27T18:27:37.349Z,9.07
2019-02-27T18:30:08.843Z,10.20
2019-02-27T18:32:39.915Z,9.07
2019-02-27T18:35:13.332Z,10.00
2019-02-27T18:37:42.928Z,8.80
2019-02-27T18:40:15.703Z,10.13
2019-02-27T18:42:55.233Z,11.00
2019-02-27T18:45:28.867Z,10.80
2019-02-27T18:48:07.404Z,10.20
2019-02-27T18:50:37.766Z,9.47
2019-02-27T18:53:12.941Z,11.07
2019-02-27T18:55:45.120Z,10.73
2019-02-27T18:58:18.250Z,10.67
2019-02-27T19:00:50.611Z,11.47
2019-02-27T19:03:25.904Z,11.97
2019-02-27T19:05:57.447Z,12.30
2019-02-27T19:08:28.091Z,12.60
2019-02-27T19:11:03.793Z,13.73
2019-02-27T19:13:33.789Z,13.33
2019-02-27T19:16:06.558Z,12.93
2019-02-27T19:18:41.130Z,12.97
2019-02-27T19:21:13.168Z,13.90
2019-02-27T19:23:44.859Z,14.70
2019-02-27T19:26:17.010Z,16.27
2019-02-27T19:28:47.216Z,15.77
2019-02-27T19:31:18.934Z,15.23
2019-02-27T19:33:53.653Z,14.63
2019-02-27T19:36:30.490Z,14.03
2019-02-27T19:38:59.907Z,13.07
2019-02-27T19:41:40.920Z,13.67
2019-02-27T19:44:13.181Z,12.33
2019-02-27T19:46:47.458Z,12.70
2019-02-27T19:49:18.094Z,13.93
2019-02-27T19:51:54.868Z,13.67
2019-02-27T19:54:24.055Z,12.53
2019-02-27T19:56:55.222Z,13.03
2019-02-27T19:59:30.209Z,13.00
2019-02-27T20:02:00.353Z,12.20
2019-02-27T20:04:29.907Z,12.37
2019-02-27T20:07:09.990Z,12.77
2019-02-27T20:09:42.127Z,13.00
2019-02-27T20:12:16.578Z,12.87
2019-02-27T20:14:48.413Z,12.70
2019-02-27T20:17:32.862Z,13.03
2019-02-27T20:20:07.592Z,12.60
2019-02-27T20:22:40.322Z,13.27
2019-02-27T20:25:15.254Z,13.87
2019-02-27T20:27:48.101Z,13.40
2019-02-27T20:30:22.768Z,13.53
2019-02-27T20:32:55.724Z,12.90
2019-02-27T20:35:26.635Z,12.77
2019-02-27T20:37:55.930Z,16.50
2019-02-27T20:40:27.605Z,14.70
2019-02-27T20:42:59.784Z,14.77
2019-02-27T20:45:50.454Z,14.93
2019-02-27T20:48:19.796Z,13.30
2019-02-27T20:50:51.564Z,12.17
2019-02-27T20:53:21.870Z,11.83
2019-02-27T20:55:51.047Z,11.30
2019-02-27T20:58:22.807Z,11.07
2019-02-27T21:00:52.691Z,10.00
2019-02-27T21:03:27.266Z,10.13
2019-02-27T21:05:57.264Z,11.00
2019-02-27T21:08:33.332Z,10.07
2019-02-27T21:11:03.394Z,11.57
2019-02-27T21:13:33.177Z,10.90
2019-02-27T21:16:04.314Z,10.20
2019-02-27T21:18:34.998Z,9.93
2019-02-27T21:21:05.986Z,10.17
2019-02-27T21:23:35.514Z,11.13
2019-02-27T21:26:05.022Z,11.80
2019-02-27T21:28:34.190Z,11.23
2019-02-27T21:31:04.717Z,11.37
2019-02-27T21:33:35.102Z,10.80
2019-02-27T21:36:05.084Z,9.53
2019-02-27T21:38:37.672Z,10.23
2019-02-27T21:41:11.463Z,9.57
2019-02-27T21:43:40.035Z,10.60
2019-02-27T21:46:11.582Z,10.33
2019-02-27T21:48:41.256Z,10.43
2019-02-27T21:51:11.027Z,10.43
2019-02-27T21:53:41.922Z,10.60
2019-02-27T21:56:15.188Z,12.60
2019-02-27T21:58:43.350Z,10.40
2019-02-27T22:01:13.094Z,10.17
2019-02-27T22:03:43.223Z,10.73
2019-02-27T22:06:12.731Z,10.30
2019-02-27T22:08:42.236Z,10.30
2019-02-27T22:11:13.340Z,12.03
2019-02-27T22:13:45.369Z,11.37
2019-02-27T22:16:13.669Z,11.77
2019-02-27T22:18:47.142Z,26.00
2019-02-27T22:21:15.837Z,25.37
2019-02-27T22:23:46.021Z,19.20
2019-02-27T22:26:15.342Z,23.63
2019-02-27T22:28:46.738Z,15.13
2019-02-27T22:31:15.947Z,11.80
2019-02-27T22:33:46.334Z,10.37
2019-02-27T22:36:15.972Z,11.43
2019-02-27T22:38:46.018Z,10.57
2019-02-27T22:41:15.304Z,10.57
2019-02-27T22:43:47.456Z,9.80
2019-02-27T22:46:19.911Z,10.10
2019-02-27T22:48:49.513Z,9.90
2019-02-27T22:51:18.743Z,9.20
2019-02-27T22:53:47.889Z,8.90
2019-02-27T22:56:17.211Z,8.50
2019-02-27T22:58:49.394Z,8.60
2019-02-27T23:01:25.343Z,8.80
2019-02-27T23:04:07.235Z,10.77
2019-02-27T23:06:43.730Z,14.47
2019-02-27T23:09:14.015Z,12.43
2019-02-27T23:11:46.425Z,12.40
2019-02-27T23:14:18.947Z,9.50
2019-02-27T23:16:47.099Z,8.87
2019-02-27T23:19:17.062Z,8.07
2019-02-27T23:21:47.408Z,8.97
2019-02-27T23:24:17.131Z,14.07
2019-02-27T23:26:54.138Z,10.57
2019-02-27T23:29:24.222Z,9.67
2019-02-27T23:31:55.810Z,8.47
2019-02-27T23:34:26.614Z,8.73
2019-02-27T23:36:56.543Z,8.50
2019-02-27T23:39:26.698Z,8.07
2019-02-27T23:41:57.157Z,7.77
2019-02-27T23:44:26.769Z,8.27
2019-02-27T23:46:58.272Z,8.43
2019-02-27T23:49:27.449Z,8.80
2019-02-27T23:51:56.901Z,8.87
2019-02-27T23:54:26.662Z,8.60
2019-02-27T23:56:56.194Z,8.20
2019-02-27T23:59:27.255Z,8.17
